Time;durP1;ratioP1;P1;durP2;ratioP2;P2;SDS_P1;SDS_P2;PMS_P1;PMS_P2;Temp;Humidity;BMP_temperature;BMP_pressure;BME280_temperature;BME280_humidity;BME280_pressure;Samples;Min_cycle;Max_cycle;Signal;HPM_P1;HPM_P2
2023/09/07 00:02:20;;;;;;;10.32;7.88;;;19.90;99.90;;;;;;5112328;28;20534;-71
2023/09/07 00:04:45;;;;;;;10.43;7.97;;;19.90;99.90;;;;;;5113411;28;20174;-71
2023/09/07 00:07:12;;;;;;;9.65;8.63;;;19.90;99.90;;;;;;5113045;28;20624;-72
2023/09/07 00:09:37;;;;;;;13.85;8.88;;;19.90;99.90;;;;;;5113328;28;20246;-70
2023/09/07 00:12:03;;;;;;;11.85;8.77;;;19.80;99.90;;;;;;5112108;28;20305;-70
2023/09/07 00:14:29;;;;;;;12.20;8.68;;;19.90;99.90;;;;;;5113491;28;20288;-71
2023/09/07 00:16:54;;;;;;;11.68;9.00;;;19.80;99.90;;;;;;5113489;28;20510;-70
2023/09/07 00:19:20;;;;;;;10.68;8.48;;;19.80;99.90;;;;;;5112983;28;20163;-70
2023/09/07 00:21:45;;;;;;;9.43;8.23;;;19.80;99.90;;;;;;5112966;28;20309;-71
2023/09/07 00:24:11;;;;;;;12.50;8.00;;;19.80;99.90;;;;;;5113409;28;20160;-71
2023/09/07 00:26:37;;;;;;;8.80;7.93;;;19.70;99.90;;;;;;5113235;28;20167;-71
2023/09/07 00:29:02;;;;;;;10.32;8.55;;;19.70;99.90;;;;;;5113322;28;20182;-70
2023/09/07 00:31:28;;;;;;;11.52;8.18;;;19.70;99.90;;;;;;5113309;28;20642;-70
2023/09/07 00:33:53;;;;;;;9.40;8.50;;;19.60;99.90;;;;;;5113221;28;20194;-71
2023/09/07 00:36:19;;;;;;;12.60;8.38;;;19.50;99.90;;;;;;5113008;28;20163;-71
2023/09/07 00:38:45;;;;;;;9.68;8.82;;;19.50;99.90;;;;;;5113374;28;20626;-71
2023/09/07 00:41:13;;;;;;;17.52;11.00;;;19.60;99.90;;;;;;5113120;28;20339;-70
2023/09/07 00:43:40;;;;;;;12.50;10.38;;;19.50;99.90;;;;;;5111806;28;20183;-70
2023/09/07 00:46:06;;;;;;;11.45;9.00;;;19.50;99.90;;;;;;5111912;28;20238;-71
2023/09/07 00:48:33;;;;;;;15.80;10.73;;;19.50;99.90;;;;;;5113149;28;20555;-70
2023/09/07 00:50:59;;;;;;;11.52;8.60;;;19.50;99.90;;;;;;5113032;28;20262;-71
2023/09/07 00:53:26;;;;;;;11.60;10.00;;;19.60;99.90;;;;;;5111825;28;20167;-70
2023/09/07 00:55:54;;;;;;;10.93;8.27;;;19.70;99.90;;;;;;5114459;28;20197;-71
2023/09/07 00:58:21;;;;;;;11.93;9.57;;;19.80;99.90;;;;;;5116878;28;20163;-71
2023/09/07 01:00:47;;;;;;;14.35;8.95;;;19.90;99.90;;;;;;5116723;28;20229;-70
2023/09/07 01:03:12;;;;;;;10.98;9.15;;;20.00;99.90;;;;;;5116620;28;20689;-70
2023/09/07 01:05:50;;;;;;;8.23;7.43;;;20.10;99.90;;;;;;5116263;28;20646;-71
2023/09/07 01:08:42;;;;;;;8.35;7.55;;;20.10;99.90;;;;;;5116725;28;20196;-71
2023/09/07 01:11:22;;;;;;;7.93;6.90;;;20.00;99.90;;;;;;5108131;28;20187;-70
2023/09/07 01:13:49;;;;;;;8.05;7.35;;;19.80;99.90;;;;;;5116433;27;20216;-70
2023/09/07 01:16:15;;;;;;;9.13;6.95;;;19.60;99.90;;;;;;5115283;28;20171;-71
2023/09/07 01:18:41;;;;;;;10.35;7.38;;;19.60;99.90;;;;;;5116240;28;20250;-70
2023/09/07 01:21:08;;;;;;;12.30;7.78;;;19.60;99.90;;;;;;5114692;28;20223;-69
2023/09/07 01:23:39;;;;;;;10.60;7.55;;;19.50;99.90;;;;;;5116297;28;20167;-70
2023/09/07 01:26:08;;;;;;;11.43;7.60;;;19.50;99.90;;;;;;5116086;28;20168;-71
2023/09/07 01:28:34;;;;;;;8.30;7.40;;;19.40;99.90;;;;;;5116710;28;20156;-70
2023/09/07 01:31:01;;;;;;;8.77;7.90;;;19.50;99.90;;;;;;5116143;27;20163;-70
2023/09/07 01:33:27;;;;;;;8.57;7.75;;;19.40;99.90;;;;;;5115786;28;20627;-70
2023/09/07 01:35:52;;;;;;;9.25;7.72;;;19.30;99.90;;;;;;5116152;28;20172;-71
2023/09/07 01:38:18;;;;;;;9.63;7.72;;;19.30;99.90;;;;;;5115969;28;20167;-70
2023/09/07 01:40:44;;;;;;;12.98;8.27;;;19.20;99.90;;;;;;5115798;28;20211;-71
2023/09/07 01:43:10;;;;;;;12.40;8.02;;;19.10;99.90;;;;;;5115923;28;20198;-71
2023/09/07 01:45:35;;;;;;;15.00;8.93;;;19.10;99.90;;;;;;5115864;28;20183;-71
2023/09/07 01:48:01;;;;;;;10.75;8.45;;;19.00;99.90;;;;;;5115491;28;20163;-71
2023/09/07 01:50:27;;;;;;;15.85;8.52;;;18.90;99.90;;;;;;5115835;28;20163;-71
2023/09/07 01:52:53;;;;;;;12.65;8.32;;;18.80;99.90;;;;;;5114407;28;20638;-71
2023/09/07 01:55:18;;;;;;;13.35;7.93;;;18.70;99.90;;;;;;5114454;28;20197;-71
2023/09/07 01:57:44;;;;;;;9.20;8.10;;;18.70;99.90;;;;;;5115585;28;20171;-71
2023/09/07 02:00:11;;;;;;;10.50;8.45;;;18.60;99.90;;;;;;5115562;28;20174;-70
2023/09/07 02:02:36;;;;;;;10.50;7.75;;;18.60;99.90;;;;;;5115059;28;20203;-70
2023/09/07 02:05:02;;;;;;;10.30;8.40;;;18.50;99.90;;;;;;5114247;28;20198;-70
2023/09/07 02:07:28;;;;;;;8.98;8.07;;;18.50;99.90;;;;;;5114652;28;20228;-71
2023/09/07 02:09:53;;;;;;;10.10;8.97;;;18.40;99.90;;;;;;5115220;28;20164;-69
2023/09/07 02:12:19;;;;;;;10.93;8.57;;;18.40;99.90;;;;;;5115588;28;20638;-69
2023/09/07 02:14:44;;;;;;;9.20;8.17;;;18.30;99.90;;;;;;5113984;28;20224;-71
2023/09/07 02:17:14;;;;;;;12.90;8.27;;;18.30;99.90;;;;;;5114943;28;20164;-70
2023/09/07 02:19:39;;;;;;;12.00;8.27;;;18.30;99.90;;;;;;5115118;28;20291;-71
2023/09/07 02:22:05;;;;;;;12.30;8.57;;;18.20;99.90;;;;;;5115088;28;20685;-70
2023/09/07 02:24:30;;;;;;;12.30;8.40;;;18.20;99.90;;;;;;5113654;28;20258;-71
2023/09/07 02:26:56;;;;;;;11.97;8.03;;;18.20;99.90;;;;;;5115144;28;20168;-71
2023/09/07 02:29:21;;;;;;;12.00;8.30;;;18.20;99.90;;;;;;5115162;28;20175;-70
2023/09/07 02:31:47;;;;;;;10.10;8.10;;;18.20;99.90;;;;;;5114490;28;20240;-71
2023/09/07 02:34:13;;;;;;;12.57;8.17;;;18.20;99.90;;;;;;5115004;28;20527;-70
2023/09/07 02:36:38;;;;;;;9.80;8.80;;;18.30;99.90;;;;;;5114984;28;20172;-69
2023/09/07 02:39:04;;;;;;;12.97;8.30;;;18.30;99.90;;;;;;5113598;28;20171;-70
2023/09/07 02:41:31;;;;;;;8.70;7.90;;;18.30;99.90;;;;;;5114606;28;20670;-69
2023/09/07 02:43:56;;;;;;;9.43;8.57;;;18.20;99.90;;;;;;5114733;28;20167;-70
2023/09/07 02:46:22;;;;;;;10.80;8.67;;;18.20;99.90;;;;;;5114395;28;20492;-70
2023/09/07 02:48:48;;;;;;;9.67;8.40;;;18.20;99.90;;;;;;5114949;28;20217;-69
2023/09/07 02:51:13;;;;;;;11.83;8.20;;;18.20;99.90;;;;;;5114711;28;20567;-70
2023/09/07 02:53:39;;;;;;;13.27;8.23;;;18.20;99.90;;;;;;5114407;28;20199;-70
2023/09/07 02:56:05;;;;;;;9.63;8.67;;;18.20;99.90;;;;;;5114420;28;20682;-70
2023/09/07 02:58:31;;;;;;;9.40;8.50;;;18.20;99.90;;;;;;5114604;28;20191;-70
2023/09/07 03:00:56;;;;;;;9.20;8.17;;;18.20;99.90;;;;;;5114152;28;20650;-71
2023/09/07 03:03:22;;;;;;;12.20;8.90;;;18.20;99.90;;;;;;5114271;28;20167;-70
2023/09/07 03:05:47;;;;;;;12.80;8.77;;;18.20;99.90;;;;;;5114405;28;20657;-70
2023/09/07 03:08:13;;;;;;;13.00;8.33;;;18.20;99.90;;;;;;5114296;28;20163;-71
2023/09/07 03:10:39;;;;;;;12.50;8.57;;;18.10;99.90;;;;;;5114309;28;20171;-71
2023/09/07 03:13:08;;;;;;;11.30;8.17;;;18.00;99.90;;;;;;5112939;28;20178;-70
2023/09/07 03:15:34;;;;;;;9.47;8.47;;;18.00;99.90;;;;;;5113768;28;20622;-70
2023/09/07 03:18:00;;;;;;;12.30;9.07;;;18.00;99.90;;;;;;5114089;28;20711;-70
2023/09/07 03:20:26;;;;;;;12.83;9.00;;;18.00;99.90;;;;;;5113572;28;20237;-70
2023/09/07 03:22:52;;;;;;;13.90;8.23;;;17.90;99.90;;;;;;5113499;28;20175;-70
2023/09/07 03:25:17;;;;;;;9.70;8.33;;;17.90;99.90;;;;;;5112792;28;20175;-70
2023/09/07 03:27:43;;;;;;;11.90;8.50;;;17.90;99.90;;;;;;5114016;28;20171;-70
2023/09/07 03:30:09;;;;;;;13.03;8.13;;;17.90;99.90;;;;;;5113406;28;20207;-70
2023/09/07 03:32:35;;;;;;;9.40;8.47;;;17.90;99.90;;;;;;5112348;28;20195;-70
2023/09/07 03:35:03;;;;;;;10.77;8.63;;;17.90;99.90;;;;;;5113844;28;20224;-70
2023/09/07 03:37:29;;;;;;;15.77;8.80;;;17.80;99.90;;;;;;5113473;28;20249;-70
2023/09/07 03:39:56;;;;;;;12.07;9.23;;;17.80;99.90;;;;;;5113828;28;20175;-70
2023/09/07 03:42:22;;;;;;;12.37;8.83;;;17.70;99.90;;;;;;5112269;28;20219;-70
2023/09/07 03:44:47;;;;;;;12.43;8.83;;;17.70;99.90;;;;;;5113288;28;20167;-71
2023/09/07 03:47:15;;;;;;;14.27;9.03;;;17.70;99.90;;;;;;5113753;28;20174;-70
2023/09/07 03:49:41;;;;;;;13.17;8.20;;;17.70;99.90;;;;;;5113350;28;20194;-71
2023/09/07 03:52:07;;;;;;;12.17;8.80;;;17.80;99.90;;;;;;5111865;28;20210;-70
2023/09/07 03:54:32;;;;;;;15.17;9.20;;;17.70;99.90;;;;;;5113146;28;20182;-70
2023/09/07 03:56:58;;;;;;;16.30;8.50;;;17.70;99.90;;;;;;5113568;28;20503;-69
2023/09/07 03:59:24;;;;;;;15.00;8.97;;;17.70;99.90;;;;;;5111767;28;20175;-70
2023/09/07 04:01:49;;;;;;;22.17;9.07;;;17.80;99.90;;;;;;5112216;28;20558;-70
2023/09/07 04:04:15;;;;;;;13.87;9.10;;;17.80;99.90;;;;;;5113283;28;20231;-70
2023/09/07 04:06:41;;;;;;;15.27;9.20;;;17.70;99.90;;;;;;5112700;28;20171;-70
2023/09/07 04:09:06;;;;;;;19.27;9.20;;;17.70;99.90;;;;;;5113166;28;20560;-70
2023/09/07 04:11:32;;;;;;;15.33;9.03;;;17.60;99.90;;;;;;5113262;28;20321;-70
2023/09/07 04:13:57;;;;;;;14.73;8.90;;;17.60;99.90;;;;;;5112659;28;20521;-70
2023/09/07 04:16:23;;;;;;;17.83;9.30;;;17.60;99.90;;;;;;5112846;28;20590;-70
2023/09/07 04:18:49;;;;;;;21.80;9.07;;;17.60;99.90;;;;;;5113204;28;20574;-70
2023/09/07 04:21:14;;;;;;;15.57;9.07;;;17.60;99.90;;;;;;5112725;28;20573;-71
2023/09/07 04:23:40;;;;;;;19.73;9.43;;;17.50;99.90;;;;;;5113257;28;20224;-70
2023/09/07 04:26:10;;;;;;;24.53;9.50;;;17.50;99.90;;;;;;5112870;28;20255;-70
2023/09/07 04:28:37;;;;;;;23.70;9.27;;;17.50;99.90;;;;;;5112858;28;20181;-70
2023/09/07 04:31:03;;;;;;;18.50;9.77;;;17.50;99.90;;;;;;5114423;28;20166;-70
2023/09/07 04:33:33;;;;;;;18.67;10.00;;;17.60;99.90;;;;;;5116988;28;20639;-71
2023/09/07 04:36:12;;;;;;;17.07;9.60;;;17.60;99.90;;;;;;5116639;28;20236;-71
2023/09/07 04:38:38;;;;;;;16.30;9.27;;;17.60;99.90;;;;;;5117107;28;20209;-69
2023/09/07 04:41:07;;;;;;;21.30;9.47;;;17.60;99.90;;;;;;5116762;28;20650;-69
2023/09/07 04:43:33;;;;;;;14.20;9.43;;;17.50;99.90;;;;;;5116604;28;20626;-71
2023/09/07 04:45:59;;;;;;;15.87;9.70;;;17.50;99.90;;;;;;5116354;28;20174;-71
2023/09/07 04:48:24;;;;;;;17.70;9.30;;;17.50;99.90;;;;;;5116823;28;20213;-70
2023/09/07 04:51:01;;;;;;;16.30;9.67;;;17.50;99.90;;;;;;5116185;28;20676;-70
2023/09/07 04:53:31;;;;;;;13.10;9.73;;;17.50;99.90;;;;;;5114932;28;20167;-70
2023/09/07 04:55:57;;;;;;;17.27;10.10;;;17.50;99.90;;;;;;5115921;28;20204;-70
2023/09/07 04:58:23;;;;;;;14.53;8.93;;;17.50;99.90;;;;;;5116274;28;20236;-70
2023/09/07 05:00:49;;;;;;;25.37;9.73;;;17.50;99.90;;;;;;5116119;28;20674;-70
2023/09/07 05:03:14;;;;;;;21.30;10.23;;;17.50;99.90;;;;;;5116394;28;20631;-70
2023/09/07 05:05:42;;;;;;;17.50;9.93;;;17.50;99.90;;;;;;5115985;28;20642;-70
2023/09/07 05:08:07;;;;;;;18.87;9.63;;;17.50;99.90;;;;;;5116071;28;20175;-70
2023/09/07 05:10:33;;;;;;;20.40;9.37;;;17.50;99.90;;;;;;5115239;28;20169;-70
2023/09/07 05:12:59;;;;;;;19.03;9.93;;;17.60;99.90;;;;;;5115985;28;20175;-69
2023/09/07 05:15:25;;;;;;;14.23;9.27;;;17.60;99.90;;;;;;5116153;28;20653;-70
2023/09/07 05:17:52;;;;;;;18.00;10.00;;;17.60;99.90;;;;;;5115841;28;20163;-70
2023/09/07 05:20:17;;;;;;;17.53;9.43;;;17.60;99.90;;;;;;5115278;28;20219;-70
2023/09/07 05:22:43;;;;;;;21.67;10.33;;;17.60;99.90;;;;;;5114530;28;20175;-71
2023/09/07 05:25:09;;;;;;;18.33;9.53;;;17.90;99.90;;;;;;5113866;28;20654;-70
2023/09/07 05:27:35;;;;;;;25.37;10.37;;;18.30;99.90;;;;;;5115197;27;20172;-71
2023/09/07 05:30:02;;;;;;;20.98;9.98;;;18.60;99.90;;;;;;5115591;28;20171;-71
2023/09/07 05:32:27;;;;;;;18.23;9.77;;;18.90;99.90;;;;;;5114924;28;20183;-71
2023/09/07 05:34:53;;;;;;;26.38;10.00;;;18.90;99.90;;;;;;5114965;28;20264;-71
2023/09/07 05:37:19;;;;;;;23.27;10.10;;;18.80;99.90;;;;;;5114244;28;20167;-70
2023/09/07 05:39:44;;;;;;;20.85;9.85;;;18.80;99.90;;;;;;5114971;28;20174;-72
2023/09/07 05:42:10;;;;;;;24.83;10.20;;;18.90;99.90;;;;;;5113849;28;20283;-71
2023/09/07 05:44:36;;;;;;;14.90;9.75;;;18.90;99.90;;;;;;5096472;28;20167;-71
2023/09/07 05:47:02;;;;;;;22.48;10.18;;;19.20;99.90;;;;;;5114790;28;20560;-72
2023/09/07 05:49:28;;;;;;;20.23;9.18;;;20.10;99.90;;;;;;5115074;28;20246;-73
2023/09/07 05:51:53;;;;;;;20.40;8.90;;;21.20;99.90;;;;;;5113475;28;20621;-73
2023/09/07 05:54:19;;;;;;;18.70;8.85;;;22.30;99.90;;;;;;5114388;28;20171;-73
2023/09/07 05:56:44;;;;;;;16.42;8.95;;;23.50;99.90;;;;;;5114613;28;20631;-74
2023/09/07 05:59:10;;;;;;;14.93;9.45;;;24.80;99.90;;;;;;5112799;28;20278;-74
2023/09/07 06:01:36;;;;;;;16.05;8.38;;;26.00;99.90;;;;;;5114950;28;20203;-74
2023/09/07 06:04:02;;;;;;;15.07;8.50;;;26.70;99.90;;;;;;5114935;28;20163;-78
2023/09/07 06:06:28;;;;;;;13.13;8.13;;;27.60;99.00;;;;;;5114349;28;20261;-76
2023/09/07 06:08:53;;;;;;;15.20;8.07;;;28.30;96.90;;;;;;5113447;28;20171;-76
2023/09/07 06:11:19;;;;;;;10.60;8.27;;;29.00;94.20;;;;;;5114084;28;20163;-76
2023/09/07 06:13:46;;;;;;;9.82;7.90;;;29.30;92.50;;;;;;5113764;28;20789;-77
2023/09/07 06:16:12;;;;;;;10.52;7.95;;;29.90;91.40;;;;;;5114972;28;20638;-77
2023/09/07 06:18:38;;;;;;;10.98;7.65;;;30.30;90.00;;;;;;5114854;28;20182;-77
2023/09/07 06:21:05;;;;;;;12.50;7.70;;;30.90;84.70;;;;;;5113562;28;20268;-79
2023/09/07 06:23:31;;;;;;;11.68;7.63;;;31.20;80.60;;;;;;5113575;28;20179;-77
2023/09/07 06:25:57;;;;;;;13.90;8.10;;;31.70;78.50;;;;;;5114343;28;20679;-77
2023/09/07 06:28:23;;;;;;;11.27;8.60;;;32.60;73.20;;;;;;5112735;28;20631;-77
2023/09/07 06:30:48;;;;;;;15.73;7.75;;;33.30;67.20;;;;;;5114596;28;20673;-77
2023/09/07 06:33:14;;;;;;;13.55;7.50;;;33.90;63.40;;;;;;5112799;28;20226;-79
2023/09/07 06:35:39;;;;;;;9.50;7.40;;;34.00;60.00;;;;;;5112627;28;20650;-79
2023/09/07 06:38:05;;;;;;;12.52;7.60;;;34.10;58.40;;;;;;5113661;28;20220;-80
2023/09/07 06:40:31;;;;;;;10.63;7.50;;;33.90;58.20;;;;;;5113227;28;20230;-80
2023/09/07 06:42:56;;;;;;;9.60;7.13;;;34.70;56.20;;;;;;5114166;28;20178;-79
2023/09/07 06:45:23;;;;;;;7.53;6.80;;;34.70;52.60;;;;;;5114467;28;20175;-78
2023/09/07 06:47:50;;;;;;;10.57;6.85;;;34.90;53.00;;;;;;5114519;28;20167;-80
2023/09/07 06:50:16;;;;;;;7.75;6.72;;;35.50;50.90;;;;;;5113588;28;20210;-79
2023/09/07 06:52:41;;;;;;;9.88;6.80;;;35.20;51.20;;;;;;5113846;28;20191;-79
2023/09/07 06:55:07;;;;;;;9.43;6.43;;;36.30;48.50;;;;;;5113093;28;20276;-79
2023/09/07 06:57:35;;;;;;;7.60;6.05;;;36.60;46.60;;;;;;5113931;28;20166;-79
2023/09/07 07:00:05;;;;;;;6.88;6.25;;;34.40;48.10;;;;;;5113877;27;20171;-80
2023/09/07 07:02:31;;;;;;;7.18;6.45;;;34.20;49.90;;;;;;5113273;28;20302;-79
2023/09/07 07:04:56;;;;;;;12.80;6.43;;;34.40;50.80;;;;;;5113828;28;20171;-80
2023/09/07 07:07:22;;;;;;;12.00;5.60;;;35.60;48.50;;;;;;5113211;28;20341;-80
2023/09/07 07:09:47;;;;;;;7.22;5.57;;;34.10;48.00;;;;;;5113657;28;20164;-80
2023/09/07 07:12:13;;;;;;;7.03;6.00;;;32.80;52.00;;;;;;5112136;28;20167;-78
2023/09/07 07:14:39;;;;;;;10.40;5.97;;;32.40;55.10;;;;;;5090638;28;20692;-80
2023/09/07 07:17:04;;;;;;;7.40;5.75;;;34.00;52.90;;;;;;5073040;28;20402;-76
2023/09/07 07:19:31;;;;;;;5.63;5.22;;;34.20;51.50;;;;;;5086008;28;20303;-78
2023/09/07 07:21:57;;;;;;;6.40;5.45;;;33.60;50.30;;;;;;5091945;28;20234;-80
2023/09/07 07:24:22;;;;;;;7.60;5.53;;;32.10;53.50;;;;;;5093020;28;20622;-76
2023/09/07 07:26:48;;;;;;;5.57;5.18;;;31.80;57.50;;;;;;5092904;28;20175;-82
2023/09/07 07:29:13;;;;;;;7.93;5.68;;;32.80;55.10;;;;;;5092807;28;20160;-80
2023/09/07 07:31:39;;;;;;;5.72;4.95;;;33.00;53.00;;;;;;5092581;28;20188;-80
2023/09/07 07:34:05;;;;;;;6.70;5.47;;;32.90;53.40;;;;;;5090914;28;20190;-79
2023/09/07 07:36:30;;;;;;;5.75;5.13;;;32.30;55.10;;;;;;5091264;28;20184;-80
2023/09/07 07:38:56;;;;;;;5.22;4.72;;;32.20;55.70;;;;;;5093017;28;20168;-80
2023/09/07 07:41:22;;;;;;;6.10;4.78;;;32.50;54.10;;;;;;5092871;28;20210;-79
2023/09/07 07:43:47;;;;;;;5.20;4.90;;;32.50;54.70;;;;;;5092963;28;20171;-80
2023/09/07 07:46:15;;;;;;;5.50;4.88;;;32.10;55.40;;;;;;5093277;28;20180;-81
2023/09/07 07:48:41;;;;;;;4.95;4.47;;;31.20;57.10;;;;;;5093323;28;20172;-79
2023/09/07 07:51:08;;;;;;;5.90;4.60;;;30.40;60.60;;;;;;5091894;28;20175;-79
2023/09/07 07:53:34;;;;;;;4.72;4.32;;;31.10;60.30;;;;;;5092732;28;20271;-79
2023/09/07 07:56:00;;;;;;;4.97;4.50;;;31.80;58.20;;;;;;5092797;28;20669;-83
2023/09/07 07:58:26;;;;;;;5.05;4.50;;;31.70;57.20;;;;;;5093320;28;20163;-81
2023/09/07 08:00:52;;;;;;;4.97;4.40;;;32.30;56.00;;;;;;5091111;28;20227;-79
2023/09/07 08:03:17;;;;;;;4.97;4.57;;;31.00;57.30;;;;;;5092565;28;20251;-81
2023/09/07 08:05:43;;;;;;;4.60;4.20;;;31.80;58.30;;;;;;5093838;28;20679;-80
2023/09/07 08:08:09;;;;;;;4.90;4.43;;;32.60;55.70;;;;;;5105862;28;20507;-82
2023/09/07 08:10:40;;;;;;;4.20;3.78;;;33.90;52.40;;;;;;5116947;28;20623;-77
2023/09/07 08:13:06;;;;;;;4.97;4.50;;;33.00;53.10;;;;;;5117144;28;20252;-78
2023/09/07 08:15:33;;;;;;;5.65;4.70;;;33.00;54.60;;;;;;5116563;28;20645;-79
2023/09/07 08:17:59;;;;;;;4.60;4.30;;;35.10;51.40;;;;;;5116531;28;20174;-79
2023/09/07 08:20:29;;;;;;;4.22;3.92;;;35.60;46.50;;;;;;5115349;28;20223;-80
2023/09/07 08:22:55;;;;;;;5.30;4.15;;;35.90;44.70;;;;;;5114791;28;20226;-79
2023/09/07 08:25:21;;;;;;;5.32;4.30;;;35.90;45.50;;;;;;5095932;28;20269;-77
2023/09/07 08:27:47;;;;;;;3.70;3.50;;;36.00;44.20;;;;;;5096491;28;20175;-80
2023/09/07 08:30:17;;;;;;;4.13;3.72;;;36.40;42.80;;;;;;5096454;28;20623;-80
2023/09/07 08:32:47;;;;;;;4.55;3.85;;;36.50;42.20;;;;;;5096365;28;20702;-81
2023/09/07 08:35:13;;;;;;;4.65;4.35;;;36.30;42.00;;;;;;5095645;28;20597;-79
2023/09/07 08:37:40;;;;;;;4.20;4.00;;;35.50;41.90;;;;;;5094859;28;20254;-79
2023/09/07 08:40:09;;;;;;;4.43;4.05;;;33.40;45.60;;;;;;5096862;28;20176;-80
2023/09/07 08:42:39;;;;;;;4.43;4.03;;;32.80;48.00;;;;;;5096680;28;20249;-83
2023/09/07 08:45:07;;;;;;;4.05;3.70;;;31.80;50.90;;;;;;5095997;28;20221;-79
2023/09/07 08:47:35;;;;;;;4.20;3.85;;;32.40;51.50;;;;;;5095727;28;20171;-81
2023/09/07 08:50:02;;;;;;;4.50;4.03;;;32.90;49.50;;;;;;5095815;28;20184;-77
2023/09/07 08:52:28;;;;;;;4.00;3.70;;;34.00;48.30;;;;;;5096135;28;20172;-79
2023/09/07 08:54:58;;;;;;;4.28;3.88;;;33.80;47.20;;;;;;5096062;28;20168;-81
2023/09/07 08:57:24;;;;;;;3.70;3.50;;;34.20;47.20;;;;;;5094859;28;20249;-80
2023/09/07 08:59:50;;;;;;;4.80;4.25;;;33.10;47.80;;;;;;5095450;28;20207;-80
2023/09/07 09:02:16;;;;;;;4.53;3.65;;;33.90;48.20;;;;;;5095937;28;20235;-81
2023/09/07 09:04:42;;;;;;;4.50;4.10;;;32.90;48.20;;;;;;5096002;28;20221;-83
2023/09/07 09:07:07;;;;;;;4.00;3.72;;;32.10;50.80;;;;;;5096444;28;20175;-78
2023/09/07 09:09:33;;;;;;;3.78;3.47;;;32.00;51.20;;;;;;5094647;28;20179;-79
2023/09/07 09:12:12;;;;;;;4.55;4.15;;;32.60;50.80;;;;;;5095495;28;20248;-80
2023/09/07 09:14:42;;;;;;;3.78;3.55;;;32.90;49.30;;;;;;5096035;28;20176;-78
2023/09/07 09:17:12;;;;;;;3.78;3.58;;;33.10;49.10;;;;;;5103894;28;20194;-78
2023/09/07 09:19:38;;;;;;;3.90;3.60;;;32.50;48.30;;;;;;5112298;28;20260;-81
2023/09/07 09:22:03;;;;;;;4.10;3.70;;;32.10;50.80;;;;;;5098163;28;20208;-77
2023/09/07 09:24:33;;;;;;;4.22;3.75;;;31.80;51.10;;;;;;5111873;28;20164;-79
2023/09/07 09:26:59;;;;;;;5.97;4.97;;;31.90;51.40;;;;;;5100974;28;20168;-79
2023/09/07 09:29:25;;;;;;;4.30;3.90;;;32.40;51.30;;;;;;5115150;28;20640;-76
2023/09/07 09:31:52;;;;;;;6.22;5.55;;;32.20;50.30;;;;;;5100463;28;20200;-76
2023/09/07 09:34:19;;;;;;;4.50;4.10;;;32.70;51.00;;;;;;5112742;28;20178;-78
2023/09/07 09:36:45;;;;;;;4.88;4.18;;;32.50;50.90;;;;;;5101319;28;20171;-80
2023/09/07 09:39:21;;;;;;;4.10;3.90;;;32.60;50.40;;;;;;5106790;28;20674;-77
2023/09/07 09:41:46;;;;;;;4.97;4.53;;;32.90;49.10;;;;;;5108938;28;20206;-79
2023/09/07 09:44:13;;;;;;;3.85;3.58;;;33.80;47.90;;;;;;5098489;28;20176;-78
2023/09/07 09:46:40;;;;;;;3.78;3.58;;;34.30;46.70;;;;;;5110081;28;20164;-79
2023/09/07 09:49:08;;;;;;;5.70;3.88;;;33.60;46.40;;;;;;5103587;28;20204;-81
2023/09/07 09:51:34;;;;;;;4.78;4.18;;;33.20;47.80;;;;;;5101975;28;20164;-79
2023/09/07 09:54:02;;;;;;;4.22;3.95;;;33.30;48.80;;;;;;5103962;28;20190;-79
2023/09/07 09:56:27;;;;;;;4.38;4.07;;;33.40;49.30;;;;;;5098063;28;20170;-80
2023/09/07 09:58:53;;;;;;;3.70;3.50;;;33.40;47.80;;;;;;5114625;28;20163;-83
2023/09/07 10:01:19;;;;;;;4.53;4.22;;;33.00;48.50;;;;;;5109623;28;20211;-81
2023/09/07 10:03:47;;;;;;;4.22;3.88;;;33.30;48.90;;;;;;5094417;28;20179;-80
2023/09/07 10:06:20;;;;;;;4.65;4.22;;;33.00;48.60;;;;;;5110971;28;20254;-80
2023/09/07 10:09:06;;;;;;;4.20;3.90;;;32.90;49.20;;;;;;5093913;28;20172;-83
2023/09/07 10:11:33;;;;;;;3.97;3.78;;;31.50;52.10;;;;;;5106315;28;20159;-77
2023/09/07 10:14:03;;;;;;;4.13;3.83;;;32.20;52.40;;;;;;5097582;28;20171;-82
2023/09/07 10:16:28;;;;;;;4.68;4.35;;;32.80;51.10;;;;;;5092468;28;20291;-81
2023/09/07 10:18:54;;;;;;;4.35;4.00;;;32.90;50.90;;;;;;5100369;28;20259;-81
2023/09/07 10:21:25;;;;;;;5.53;5.03;;;32.20;52.30;;;;;;5103299;28;20223;-81
2023/09/07 10:23:52;;;;;;;4.68;4.28;;;31.40;55.60;;;;;;5108063;28;20172;-82
2023/09/07 10:26:21;;;;;;;5.90;4.68;;;30.60;57.50;;;;;;5099984;28;20179;-79
2023/09/07 10:28:47;;;;;;;5.90;4.20;;;30.70;60.00;;;;;;5116392;28;20622;-80
2023/09/07 10:31:18;;;;;;;7.00;5.25;;;30.60;59.40;;;;;;5105042;28;20192;-80
2023/09/07 10:33:45;;;;;;;8.65;7.95;;;30.50;61.40;;;;;;5101961;28;20174;-81
2023/09/07 10:36:25;;;;;;;6.03;5.63;;;31.20;59.50;;;;;;5095890;28;20647;-81
2023/09/07 10:38:54;;;;;;;6.03;5.15;;;31.10;59.70;;;;;;5107679;28;20171;-80
2023/09/07 10:41:20;;;;;;;4.97;4.65;;;31.40;59.30;;;;;;5106464;28;20219;-82
2023/09/07 10:43:54;;;;;;;15.80;12.98;;;31.70;58.50;;;;;;5106095;28;20262;-81
2023/09/07 10:46:21;;;;;;;9.80;8.88;;;31.30;59.20;;;;;;5111257;28;20167;-81
2023/09/07 10:48:52;;;;;;;6.03;4.80;;;31.30;59.20;;;;;;5098882;28;20175;-84
2023/09/07 10:51:21;;;;;;;5.35;4.95;;;32.00;59.20;;;;;;5102864;28;20164;-84
2023/09/07 10:53:47;;;;;;;7.15;6.43;;;31.80;59.80;;;;;;5106674;28;20638;-82
2023/09/07 10:56:13;;;;;;;6.00;4.75;;;32.10;58.10;;;;;;5111581;28;20182;-81
2023/09/07 10:58:41;;;;;;;5.38;4.93;;;31.30;59.80;;;;;;5096059;28;20236;-81
2023/09/07 11:01:07;;;;;;;5.57;5.07;;;31.20;61.80;;;;;;5104222;28;20241;-77
2023/09/07 11:03:33;;;;;;;6.28;4.75;;;31.70;61.20;;;;;;5102786;28;20168;-76
2023/09/07 11:06:06;;;;;;;5.20;4.80;;;31.50;59.40;;;;;;5113632;28;20167;-79
2023/09/07 11:08:35;;;;;;;5.03;3.67;;;30.90;61.60;;;;;;5079264;28;20160;-77
2023/09/07 11:11:02;;;;;;;5.57;5.18;;;30.60;61.00;;;;;;5107729;28;20172;-79
2023/09/07 11:13:28;;;;;;;4.82;4.43;;;31.00;62.90;;;;;;5102283;28;20191;-78
2023/09/07 11:15:55;;;;;;;4.97;3.95;;;31.20;60.40;;;;;;5104027;28;20205;-81
2023/09/07 11:18:22;;;;;;;4.18;3.80;;;31.20;62.30;;;;;;5092741;28;20171;-81
2023/09/07 11:20:49;;;;;;;3.63;3.33;;;31.50;60.70;;;;;;5106711;28;20740;-80
2023/09/07 11:23:15;;;;;;;4.50;4.20;;;32.20;58.40;;;;;;5101772;28;20217;-78
2023/09/07 11:25:41;;;;;;;4.80;4.38;;;31.70;59.90;;;;;;5098752;28;20178;-75
2023/09/07 11:28:09;;;;;;;5.22;4.82;;;31.00;60.00;;;;;;5108191;28;20274;-79
2023/09/07 11:30:34;;;;;;;4.95;4.45;;;30.20;63.50;;;;;;5094769;28;20606;-77
2023/09/07 11:33:06;;;;;;;5.63;4.30;;;30.00;65.00;;;;;;5103984;28;20203;-78
2023/09/07 11:35:32;;;;;;;5.68;3.72;;;30.30;65.00;;;;;;5100805;28;20178;-79
2023/09/07 11:38:00;;;;;;;4.40;4.10;;;30.30;64.00;;;;;;5092864;28;20200;-78
2023/09/07 11:40:26;;;;;;;3.67;3.30;;;30.40;64.20;;;;;;5093428;28;20254;-79
2023/09/07 11:42:51;;;;;;;3.95;3.70;;;30.40;62.90;;;;;;5097949;28;20175;-79
2023/09/07 11:45:18;;;;;;;4.68;4.10;;;30.30;64.20;;;;;;5101842;28;20309;-78
2023/09/07 11:47:44;;;;;;;7.63;3.13;;;30.80;63.40;;;;;;5105900;28;20181;-78
2023/09/07 11:50:10;;;;;;;4.05;3.47;;;31.00;59.60;;;;;;5095199;28;20527;-78
2023/09/07 11:52:35;;;;;;;3.60;3.30;;;31.30;59.40;;;;;;5107927;28;20623;-82
2023/09/07 11:55:03;;;;;;;6.82;3.20;;;31.30;59.10;;;;;;5099680;28;20615;-77
2023/09/07 11:57:29;;;;;;;3.60;3.28;;;31.40;58.30;;;;;;5099642;28;20262;-83
2023/09/07 11:59:55;;;;;;;3.08;2.95;;;31.30;58.30;;;;;;5107373;28;20614;-77
2023/09/07 12:02:21;;;;;;;3.95;3.55;;;30.80;58.50;;;;;;5094780;28;20210;-82
2023/09/07 12:04:48;;;;;;;3.60;3.30;;;30.80;59.10;;;;;;5106373;28;20168;-79
2023/09/07 12:07:14;;;;;;;4.40;3.72;;;30.70;59.50;;;;;;5099939;28;20170;-83
2023/09/07 12:09:40;;;;;;;3.78;3.47;;;30.50;60.30;;;;;;5091671;28;20282;-81
2023/09/07 12:12:06;;;;;;;3.78;3.53;;;29.70;60.90;;;;;;5107170;28;20658;-78
2023/09/07 12:14:32;;;;;;;6.15;4.70;;;29.60;63.60;;;;;;5093770;28;20247;-77
2023/09/07 12:16:58;;;;;;;3.97;3.67;;;29.80;62.40;;;;;;5103956;28;20620;-82
2023/09/07 12:19:24;;;;;;;3.63;3.33;;;29.80;63.40;;;;;;5101994;28;20558;-75
2023/09/07 12:21:50;;;;;;;3.80;3.60;;;29.90;62.40;;;;;;5097119;28;20211;-81
2023/09/07 12:24:16;;;;;;;3.92;3.53;;;30.00;64.20;;;;;;5108473;28;20650;-79
2023/09/07 12:26:42;;;;;;;4.40;4.00;;;29.90;65.00;;;;;;5091470;28;20501;-78
2023/09/07 12:29:07;;;;;;;4.40;4.07;;;29.40;66.40;;;;;;5100491;28;20202;-83
2023/09/07 12:31:33;;;;;;;4.35;3.90;;;29.50;65.80;;;;;;5097608;28;20200;-76
2023/09/07 12:33:59;;;;;;;4.05;3.65;;;29.70;66.20;;;;;;5106261;28;20665;-77
2023/09/07 12:36:28;;;;;;;3.95;3.67;;;29.40;65.50;;;;;;5094719;28;20187;-83
2023/09/07 12:38:53;;;;;;;5.45;4.07;;;29.40;66.30;;;;;;5105110;28;20180;-79
2023/09/07 12:41:20;;;;;;;3.90;3.60;;;29.40;67.20;;;;;;5089420;28;20656;-82